createdAt,value
2022-11-26T00:00:22.965Z,1.75
2022-11-26T00:01:26.982Z,2.00
2022-11-26T00:02:30.830Z,2.25
2022-11-26T00:03:34.796Z,2.25
2022-11-26T00:04:38.932Z,2.25
2022-11-26T00:05:43.079Z,2.00
2022-11-26T00:06:46.972Z,1.75
2022-11-26T00:07:51.072Z,1.75
2022-11-26T00:08:55.404Z,1.75
2022-11-26T00:09:59.500Z,2.50
2022-11-26T00:11:03.792Z,2.50
2022-11-26T00:12:07.491Z,1.50
2022-11-26T00:13:10.984Z,1.75
2022-11-26T00:14:14.722Z,3.00
2022-11-26T00:15:18.370Z,2.25
2022-11-26T00:16:22.344Z,1.50
2022-11-26T00:17:26.412Z,2.00
2022-11-26T00:18:30.261Z,2.50
2022-11-26T00:19:34.573Z,2.00
2022-11-26T00:20:38.370Z,2.00
2022-11-26T00:21:42.587Z,2.00
2022-11-26T00:22:49.337Z,3.00
2022-11-26T00:23:52.929Z,3.00
2022-11-26T00:24:56.328Z,1.75
2022-11-26T00:26:00.332Z,1.50
2022-11-26T00:27:04.331Z,1.50
2022-11-26T00:28:08.426Z,2.00
2022-11-26T00:29:12.631Z,1.25
2022-11-26T00:30:16.036Z,1.50
2022-11-26T00:31:28.553Z,1.25
2022-11-26T00:32:32.429Z,1.25
2022-11-26T00:33:36.512Z,2.50
2022-11-26T00:34:40.584Z,2.25
2022-11-26T00:35:44.126Z,1.75
2022-11-26T00:36:50.172Z,1.50
2022-11-26T00:37:53.958Z,2.00
2022-11-26T00:38:57.954Z,2.00
2022-11-26T00:40:01.668Z,2.00
2022-11-26T00:41:05.810Z,2.00
2022-11-26T00:42:10.065Z,2.50
2022-11-26T00:43:17.762Z,1.25
2022-11-26T00:45:42.278Z,1.75
2022-11-26T00:46:58.489Z,1.50
2022-11-26T00:48:11.127Z,2.00
2022-11-26T00:49:14.846Z,2.00
2022-11-26T00:50:26.223Z,2.25
2022-11-26T00:51:34.014Z,2.00
2022-11-26T00:52:37.993Z,0.00
2022-11-26T00:53:41.680Z,1.00
2022-11-26T00:54:45.477Z,2.00
2022-11-26T00:55:49.175Z,2.00
2022-11-26T00:56:53.103Z,2.50
2022-11-26T00:57:57.683Z,2.00
2022-11-26T00:59:01.376Z,1.25
2022-11-26T01:00:05.070Z,1.00
2022-11-26T01:01:21.093Z,2.00
2022-11-26T01:02:26.255Z,1.50
2022-11-26T01:03:30.194Z,2.00
2022-11-26T01:04:34.107Z,1.75
2022-11-26T01:05:40.649Z,1.50
2022-11-26T01:06:54.920Z,1.50
2022-11-26T01:08:01.664Z,1.25
2022-11-26T01:09:05.962Z,2.00
2022-11-26T01:10:09.649Z,1.75
2022-11-26T01:11:14.324Z,2.25
2022-11-26T01:12:18.474Z,2.50
2022-11-26T01:13:22.070Z,2.50
2022-11-26T01:14:25.771Z,2.00
2022-11-26T01:15:36.618Z,2.25
2022-11-26T01:16:40.269Z,2.00
2022-11-26T01:17:43.805Z,2.00
2022-11-26T01:18:58.729Z,2.00
2022-11-26T01:20:02.261Z,1.00
2022-11-26T01:21:08.396Z,2.00
2022-11-26T01:22:13.325Z,1.50
2022-11-26T01:23:19.630Z,1.50
2022-11-26T01:24:23.302Z,1.50
2022-11-26T01:25:27.277Z,1.50
2022-11-26T01:33:43.516Z,2.00
2022-11-26T01:34:47.307Z,1.75
2022-11-26T01:35:51.108Z,1.50
2022-11-26T01:36:56.229Z,0.50
2022-11-26T01:37:59.747Z,1.50
2022-11-26T01:39:04.248Z,2.00
2022-11-26T01:40:07.836Z,1.50
2022-11-26T01:41:11.553Z,2.00
2022-11-26T01:42:15.113Z,1.00
2022-11-26T01:43:18.612Z,1.50
2022-11-26T01:44:22.199Z,2.00
2022-11-26T01:45:25.940Z,1.25
2022-11-26T01:46:29.476Z,1.25
2022-11-26T01:47:33.375Z,1.50
2022-11-26T01:48:37.068Z,1.00
2022-11-26T01:49:40.478Z,1.00
2022-11-26T01:50:43.956Z,2.00
2022-11-26T01:51:47.328Z,1.40
2022-11-26T01:52:51.142Z,1.50
2022-11-26T01:53:55.150Z,2.00
2022-11-26T01:55:01.496Z,1.50
2022-11-26T01:56:09.880Z,1.75
2022-11-26T01:57:14.512Z,2.50
2022-11-26T01:58:17.911Z,1.50
2022-11-26T01:59:21.620Z,2.00
2022-11-26T02:00:25.077Z,2.00
2022-11-26T02:01:29.284Z,0.50
2022-11-26T02:02:33.136Z,1.00
2022-11-26T02:03:36.984Z,2.50
2022-11-26T02:04:51.095Z,2.00
2022-11-26T02:05:54.502Z,2.00
2022-11-26T02:06:58.611Z,2.25
2022-11-26T02:08:03.026Z,2.00
2022-11-26T02:09:06.604Z,1.50
2022-11-26T02:10:10.335Z,2.00
2022-11-26T02:11:13.705Z,2.00
2022-11-26T02:12:17.698Z,2.50
2022-11-26T02:13:22.401Z,2.50
2022-11-26T02:14:26.210Z,2.00
2022-11-26T02:15:29.891Z,2.00
2022-11-26T02:16:33.648Z,1.25
2022-11-26T02:17:37.183Z,1.00
2022-11-26T02:18:41.183Z,1.50
2022-11-26T02:19:44.773Z,1.25
2022-11-26T02:20:48.769Z,0.50
2022-11-26T02:21:52.570Z,0.50
2022-11-26T02:22:56.290Z,1.00
2022-11-26T02:24:00.065Z,1.50
2022-11-26T02:25:04.161Z,2.00
2022-11-26T02:26:07.655Z,1.50
2022-11-26T02:27:11.450Z,1.00
2022-11-26T02:28:15.145Z,1.00
2022-11-26T02:29:19.354Z,0.75
2022-11-26T02:30:23.038Z,2.00
2022-11-26T02:31:26.783Z,2.00
2022-11-26T02:32:30.631Z,1.25
2022-11-26T02:33:33.814Z,1.50
2022-11-26T02:34:37.969Z,2.00
2022-11-26T02:35:41.717Z,1.00
2022-11-26T02:36:45.722Z,1.50
2022-11-26T02:37:49.512Z,1.50
2022-11-26T02:38:53.206Z,1.00
2022-11-26T02:39:56.699Z,1.00
2022-11-26T02:41:00.182Z,0.75
2022-11-26T02:42:03.587Z,1.00
2022-11-26T02:43:07.262Z,1.50
2022-11-26T02:44:11.061Z,1.25
2022-11-26T02:45:14.753Z,1.50
2022-11-26T02:46:18.645Z,1.00
2022-11-26T02:47:22.447Z,0.50
2022-11-26T02:48:26.348Z,1.00
2022-11-26T02:49:29.946Z,1.00
2022-11-26T02:50:33.532Z,0.50
2022-11-26T02:51:37.121Z,1.25
2022-11-26T02:52:40.511Z,1.00
2022-11-26T02:53:43.927Z,0.50
2022-11-26T02:54:46.924Z,0.00
2022-11-26T02:55:50.875Z,0.50
2022-11-26T02:56:54.157Z,1.00
2022-11-26T02:57:58.052Z,1.00
2022-11-26T02:59:01.959Z,1.00
2022-11-26T03:00:05.763Z,1.00
2022-11-26T03:01:09.472Z,0.00
2022-11-26T03:02:13.136Z,1.00
2022-11-26T03:03:16.629Z,1.00
2022-11-26T03:04:20.554Z,0.25
2022-11-26T03:05:24.021Z,0.50
2022-11-26T03:06:27.912Z,0.50
2022-11-26T03:07:31.659Z,0.75
2022-11-26T03:08:35.404Z,0.50
2022-11-26T03:09:38.923Z,0.00
2022-11-26T03:10:42.689Z,0.00
2022-11-26T03:11:46.580Z,0.00
2022-11-26T03:12:50.401Z,0.50
2022-11-26T03:13:53.983Z,0.50
2022-11-26T03:14:57.675Z,0.25
2022-11-26T03:16:01.447Z,0.00
2022-11-26T03:17:05.174Z,0.50
2022-11-26T03:18:09.058Z,0.50
2022-11-26T03:19:12.772Z,0.50
2022-11-26T03:20:16.447Z,0.75
2022-11-26T03:21:20.357Z,1.00
2022-11-26T03:22:24.763Z,1.00
2022-11-26T03:23:28.530Z,0.50
2022-11-26T03:24:32.988Z,1.00
2022-11-26T03:25:36.962Z,1.00
2022-11-26T03:26:40.348Z,1.00
2022-11-26T03:27:44.042Z,1.00
2022-11-26T03:28:47.939Z,1.00
2022-11-26T03:29:51.768Z,0.25
2022-11-26T03:30:55.644Z,0.50
2022-11-26T03:31:59.109Z,0.75
2022-11-26T03:33:02.711Z,0.75
2022-11-26T03:34:06.309Z,0.50
2022-11-26T03:35:10.722Z,1.00
2022-11-26T03:36:14.205Z,1.00
2022-11-26T03:37:18.008Z,0.00
2022-11-26T03:38:21.919Z,0.00
2022-11-26T03:39:25.492Z,0.50
2022-11-26T03:40:29.343Z,0.50
2022-11-26T03:41:32.981Z,1.00
2022-11-26T03:42:36.583Z,1.00
2022-11-26T03:43:40.483Z,0.25
2022-11-26T03:44:44.183Z,0.75
2022-11-26T03:45:47.702Z,0.75
2022-11-26T03:46:51.252Z,0.00
2022-11-26T03:47:55.360Z,0.25
2022-11-26T03:48:59.099Z,0.25
2022-11-26T03:50:02.358Z,0.00
2022-11-26T03:51:05.616Z,0.00
2022-11-26T03:52:08.902Z,0.50
2022-11-26T03:53:12.389Z,0.20
2022-11-26T03:54:15.596Z,0.50
2022-11-26T03:55:19.275Z,0.50
2022-11-26T03:56:22.654Z,0.00
2022-11-26T03:57:26.346Z,0.00
2022-11-26T03:58:30.037Z,0.00
2022-11-26T03:59:33.742Z,1.00
2022-11-26T04:00:37.732Z,0.50
2022-11-26T04:01:41.663Z,0.00
2022-11-26T04:02:45.334Z,0.00
2022-11-26T04:03:48.773Z,0.00
2022-11-26T04:04:52.098Z,0.00
2022-11-26T04:05:55.584Z,0.00
2022-11-26T04:06:59.490Z,0.00
2022-11-26T04:08:03.179Z,0.00
2022-11-26T04:09:06.526Z,0.00
2022-11-26T04:10:09.875Z,0.00
2022-11-26T04:11:13.040Z,0.00
2022-11-26T04:12:16.527Z,0.00
2022-11-26T04:13:20.118Z,0.00
2022-11-26T04:14:23.505Z,0.00
2022-11-26T04:15:27.088Z,0.00
2022-11-26T04:16:30.528Z,0.00
2022-11-26T04:17:34.586Z,0.00
2022-11-26T04:18:38.278Z,0.00
2022-11-26T04:19:41.867Z,0.00
2022-11-26T04:20:48.800Z,0.00
2022-11-26T04:21:50.491Z,0.00
2022-11-26T04:22:54.894Z,0.00
2022-11-26T04:23:58.179Z,0.50
2022-11-26T04:25:01.471Z,0.00
2022-11-26T04:26:04.950Z,0.00
2022-11-26T04:27:08.358Z,0.00
2022-11-26T04:28:11.942Z,0.00
2022-11-26T04:29:15.315Z,0.00
2022-11-26T04:30:18.611Z,0.25
2022-11-26T04:31:21.817Z,0.00
2022-11-26T04:32:25.266Z,0.00
2022-11-26T04:33:28.758Z,0.00
2022-11-26T04:34:32.348Z,0.00
2022-11-26T04:35:35.639Z,0.00
2022-11-26T04:36:39.124Z,0.00
2022-11-26T04:37:42.720Z,0.00
2022-11-26T04:38:46.113Z,0.50
2022-11-26T04:39:49.707Z,0.00
2022-11-26T04:40:52.978Z,0.00
2022-11-26T04:41:56.575Z,0.00
2022-11-26T04:42:59.957Z,0.00
2022-11-26T04:44:03.445Z,0.00
2022-11-26T04:45:07.343Z,0.00
2022-11-26T04:46:10.777Z,0.00
2022-11-26T04:47:14.027Z,0.00
2022-11-26T04:48:17.500Z,0.00
2022-11-26T04:49:20.892Z,0.50
2022-11-26T04:50:24.495Z,0.00
2022-11-26T04:51:28.482Z,0.00
2022-11-26T04:52:31.975Z,0.00
2022-11-26T04:53:35.560Z,0.00
2022-11-26T04:54:39.560Z,0.00
2022-11-26T04:55:43.359Z,0.00
2022-11-26T04:56:46.678Z,0.00
2022-11-26T04:57:49.833Z,0.00
2022-11-26T04:58:53.122Z,0.00
2022-11-26T04:59:56.907Z,0.00
2022-11-26T05:01:00.309Z,0.00
2022-11-26T05:02:03.591Z,0.00
2022-11-26T05:03:07.619Z,0.00
2022-11-26T05:04:11.174Z,0.00
2022-11-26T05:05:14.781Z,0.00
2022-11-26T05:06:18.251Z,0.00
2022-11-26T05:07:21.739Z,0.00
2022-11-26T05:08:25.025Z,0.00
2022-11-26T05:09:28.414Z,0.00
2022-11-26T05:10:32.123Z,0.00
2022-11-26T05:11:35.814Z,0.00
2022-11-26T05:12:39.285Z,0.25
2022-11-26T05:13:42.578Z,0.00
2022-11-26T05:14:46.677Z,0.00
2022-11-26T05:15:50.183Z,0.00
2022-11-26T05:16:53.624Z,0.00
2022-11-26T05:17:56.863Z,0.00
2022-11-26T05:19:00.430Z,0.00
2022-11-26T05:20:03.914Z,0.00
2022-11-26T05:21:07.525Z,0.00
2022-11-26T05:22:11.327Z,0.00
2022-11-26T05:23:14.697Z,0.00
2022-11-26T05:24:18.080Z,0.00
2022-11-26T05:25:21.782Z,0.00
2022-11-26T05:26:25.260Z,0.00
2022-11-26T05:27:29.154Z,0.00
2022-11-26T05:28:32.568Z,0.00
2022-11-26T05:29:36.237Z,0.00
2022-11-26T05:30:39.941Z,0.00
2022-11-26T05:31:43.469Z,0.00
2022-11-26T05:32:47.017Z,0.00
2022-11-26T05:33:50.609Z,0.00
2022-11-26T05:34:57.095Z,0.00
2022-11-26T05:35:58.199Z,0.00
2022-11-26T05:37:01.600Z,0.00
2022-11-26T05:38:05.181Z,0.25
2022-11-26T05:39:08.457Z,0.00
2022-11-26T05:40:12.060Z,0.00
2022-11-26T05:41:15.760Z,0.00
2022-11-26T05:42:19.645Z,0.00
2022-11-26T05:43:23.132Z,0.00
2022-11-26T05:44:26.519Z,0.00
2022-11-26T05:45:30.100Z,0.00
2022-11-26T05:46:33.703Z,0.00
2022-11-26T05:47:37.394Z,0.00
2022-11-26T05:48:40.790Z,0.00
2022-11-26T05:49:44.173Z,0.00
2022-11-26T05:50:51.614Z,0.00
2022-11-26T05:51:52.476Z,0.00
2022-11-26T05:52:56.171Z,0.00
2022-11-26T05:54:00.165Z,0.00
2022-11-26T05:55:03.356Z,0.25
2022-11-26T05:56:06.949Z,0.00
2022-11-26T05:57:10.643Z,0.00
2022-11-26T05:58:14.127Z,0.00
2022-11-26T05:59:17.641Z,0.00
2022-11-26T06:00:21.212Z,0.25
2022-11-26T06:01:25.823Z,0.00
2022-11-26T06:02:29.979Z,0.00
2022-11-26T06:03:33.768Z,0.00
2022-11-26T06:04:37.466Z,0.00
2022-11-26T06:05:41.417Z,0.50
2022-11-26T06:06:45.416Z,0.50
2022-11-26T06:07:49.026Z,0.00
2022-11-26T06:08:52.611Z,0.00
2022-11-26T06:09:56.605Z,0.00
2022-11-26T06:11:00.194Z,0.00
2022-11-26T06:12:04.005Z,0.00
2022-11-26T06:13:07.286Z,0.00
2022-11-26T06:14:10.881Z,0.00
2022-11-26T06:15:14.982Z,0.00
2022-11-26T06:16:18.410Z,0.00
2022-11-26T06:17:22.056Z,0.00
2022-11-26T06:18:25.750Z,0.00
2022-11-26T06:19:29.344Z,0.50
2022-11-26T06:20:33.147Z,0.00
2022-11-26T06:21:36.935Z,0.00
2022-11-26T06:22:40.314Z,0.00
2022-11-26T06:23:51.641Z,0.00
2022-11-26T06:24:49.050Z,0.00
2022-11-26T06:25:52.426Z,0.00
2022-11-26T06:26:56.122Z,0.00
2022-11-26T06:27:59.704Z,0.00
2022-11-26T06:29:03.203Z,0.00
2022-11-26T06:30:06.895Z,0.00
2022-11-26T06:31:10.952Z,0.00
2022-11-26T06:32:14.489Z,0.00
2022-11-26T06:33:18.088Z,0.00
2022-11-26T06:34:21.669Z,0.00
2022-11-26T06:35:25.362Z,0.00
2022-11-26T06:36:28.416Z,0.00
2022-11-26T06:37:31.925Z,0.00
2022-11-26T06:38:35.729Z,0.00
2022-11-26T06:39:39.427Z,0.00
2022-11-26T06:40:43.111Z,0.00
2022-11-26T06:41:46.390Z,0.00
2022-11-26T06:42:50.089Z,0.00
2022-11-26T06:43:53.586Z,0.00
2022-11-26T06:45:00.033Z,0.00
2022-11-26T06:46:02.554Z,0.00
2022-11-26T06:47:06.104Z,0.00
2022-11-26T06:48:09.299Z,0.00
2022-11-26T06:49:12.973Z,0.00
2022-11-26T06:50:16.882Z,0.00
2022-11-26T06:51:20.660Z,0.00
2022-11-26T06:52:24.255Z,0.00
2022-11-26T06:53:27.755Z,0.00
2022-11-26T06:54:31.140Z,0.00
2022-11-26T06:55:34.519Z,0.00
2022-11-26T06:56:38.115Z,0.00
2022-11-26T06:57:42.013Z,0.00
2022-11-26T06:58:45.498Z,0.00
2022-11-26T06:59:49.295Z,0.00
2022-11-26T07:00:52.675Z,0.00
2022-11-26T07:01:56.471Z,0.00
2022-11-26T07:03:00.006Z,0.00
2022-11-26T07:04:03.780Z,0.00
2022-11-26T07:05:07.987Z,0.00
2022-11-26T07:06:12.082Z,0.50
2022-11-26T07:07:15.718Z,0.00
2022-11-26T07:08:19.060Z,0.00
2022-11-26T07:09:22.435Z,0.00
2022-11-26T07:10:25.920Z,0.00
2022-11-26T07:11:29.821Z,0.00
2022-11-26T07:12:33.792Z,0.00
2022-11-26T07:13:37.825Z,0.00
2022-11-26T07:14:41.415Z,0.00
2022-11-26T07:15:45.061Z,0.00
2022-11-26T07:16:49.121Z,0.00
2022-11-26T07:17:53.230Z,0.00
2022-11-26T07:19:02.198Z,0.00
2022-11-26T07:20:01.552Z,0.00
2022-11-26T07:21:05.728Z,0.00
2022-11-26T07:22:09.522Z,0.00
2022-11-26T07:23:13.242Z,0.00
2022-11-26T07:24:16.732Z,0.00
2022-11-26T07:25:20.405Z,0.00
2022-11-26T07:26:23.994Z,0.00
2022-11-26T07:27:27.280Z,0.00
2022-11-26T07:28:31.088Z,0.00
2022-11-26T07:29:34.559Z,0.00
2022-11-26T07:30:38.363Z,0.00
2022-11-26T07:31:41.964Z,0.00
2022-11-26T07:32:45.538Z,0.00
2022-11-26T07:33:48.933Z,0.00
2022-11-26T07:34:52.316Z,0.50
2022-11-26T07:35:56.721Z,0.00
2022-11-26T07:37:00.009Z,0.25
2022-11-26T07:38:03.706Z,0.00
2022-11-26T07:39:07.599Z,0.00
2022-11-26T07:40:10.993Z,0.25
2022-11-26T07:41:14.477Z,0.00
2022-11-26T07:42:18.167Z,0.00
2022-11-26T07:43:21.658Z,0.00
2022-11-26T07:44:24.843Z,0.00
2022-11-26T07:45:28.656Z,0.00
2022-11-26T07:46:32.017Z,0.00
2022-11-26T07:47:35.522Z,0.00
2022-11-26T07:48:38.905Z,0.00
2022-11-26T07:49:42.085Z,0.00
2022-11-26T07:50:45.782Z,0.00
2022-11-26T07:51:49.261Z,0.00
2022-11-26T07:52:52.756Z,0.50
2022-11-26T07:53:56.243Z,0.00
2022-11-26T07:54:59.908Z,0.00
2022-11-26T07:56:03.528Z,0.00
2022-11-26T07:57:06.816Z,0.00
2022-11-26T07:58:10.400Z,0.00
2022-11-26T07:59:13.993Z,0.00
2022-11-26T08:00:17.720Z,0.25
2022-11-26T08:01:22.780Z,0.00
2022-11-26T08:02:26.543Z,0.00
2022-11-26T08:03:30.413Z,0.00
2022-11-26T08:04:33.900Z,0.50
2022-11-26T08:05:37.180Z,0.25
2022-11-26T08:06:40.688Z,0.50
2022-11-26T08:07:44.079Z,0.50
2022-11-26T08:08:47.961Z,0.00
2022-11-26T08:09:51.357Z,0.00
2022-11-26T08:10:54.738Z,0.00
2022-11-26T08:11:58.427Z,0.00
2022-11-26T08:13:02.120Z,0.00
2022-11-26T08:14:05.399Z,0.00
2022-11-26T08:15:08.992Z,0.00
2022-11-26T08:16:12.455Z,0.00
2022-11-26T08:17:15.868Z,0.50
2022-11-26T08:18:19.168Z,0.00
2022-11-26T08:19:22.538Z,0.00
2022-11-26T08:20:28.831Z,0.00
2022-11-26T08:21:30.748Z,0.00
2022-11-26T08:22:34.753Z,0.00
2022-11-26T08:23:37.950Z,0.00
2022-11-26T08:24:41.408Z,0.00
2022-11-26T08:26:05.987Z,0.00
2022-11-26T08:26:50.238Z,0.00
2022-11-26T08:27:54.141Z,0.00
2022-11-26T08:28:57.419Z,0.00
2022-11-26T08:30:00.908Z,0.00
2022-11-26T08:31:04.576Z,0.00
2022-11-26T08:32:09.172Z,0.00
2022-11-26T08:33:12.723Z,0.00
2022-11-26T08:34:16.478Z,0.00
2022-11-26T08:35:20.202Z,0.00
2022-11-26T08:36:23.792Z,0.00
2022-11-26T08:37:27.498Z,0.00
2022-11-26T08:38:31.285Z,0.00
2022-11-26T08:39:34.669Z,0.00
2022-11-26T08:40:38.367Z,0.00
2022-11-26T08:41:47.341Z,0.00
2022-11-26T08:42:46.696Z,0.00
2022-11-26T08:44:06.931Z,0.00
2022-11-26T08:44:54.674Z,0.00
2022-11-26T08:45:58.296Z,0.00
2022-11-26T08:47:01.969Z,0.00
2022-11-26T08:48:05.467Z,0.25
2022-11-26T08:49:09.142Z,0.00
2022-11-26T08:50:12.853Z,0.50
2022-11-26T08:51:16.018Z,1.00
2022-11-26T08:52:19.825Z,0.25
2022-11-26T08:53:23.404Z,0.00
2022-11-26T08:54:27.416Z,0.50
2022-11-26T08:55:53.334Z,0.50
2022-11-26T08:56:35.826Z,0.00
2022-11-26T08:57:39.208Z,0.50
2022-11-26T08:58:42.692Z,0.50
2022-11-26T08:59:46.086Z,0.00
2022-11-26T09:00:49.368Z,0.00
2022-11-26T09:01:52.785Z,0.00
2022-11-26T09:02:56.083Z,0.00
2022-11-26T09:03:59.523Z,0.50
2022-11-26T09:05:03.239Z,0.00
2022-11-26T09:06:06.504Z,0.00
2022-11-26T09:07:10.148Z,0.00
2022-11-26T09:08:14.411Z,0.00
2022-11-26T09:09:18.214Z,0.00
2022-11-26T09:10:22.509Z,0.00
2022-11-26T09:11:28.863Z,0.00
2022-11-26T09:12:32.553Z,0.00
2022-11-26T09:13:36.150Z,0.00
2022-11-26T09:14:39.761Z,0.00
2022-11-26T09:15:43.343Z,0.00
2022-11-26T09:16:46.653Z,0.00
2022-11-26T09:17:50.102Z,0.00
2022-11-26T09:18:53.390Z,0.50
2022-11-26T09:19:57.087Z,1.00
2022-11-26T09:21:00.570Z,1.00
2022-11-26T09:22:04.488Z,0.00
2022-11-26T09:23:08.286Z,0.00
2022-11-26T09:24:12.169Z,0.00
2022-11-26T09:25:15.957Z,0.00
2022-11-26T09:26:19.754Z,0.50
2022-11-26T09:27:23.553Z,0.00
2022-11-26T09:28:27.763Z,0.00
2022-11-26T09:29:31.403Z,0.00
2022-11-26T09:30:34.834Z,0.00
2022-11-26T09:31:49.730Z,0.00
2022-11-26T09:32:42.998Z,0.00
2022-11-26T09:33:46.344Z,0.00
2022-11-26T09:34:49.597Z,0.00
2022-11-26T09:35:53.421Z,0.50
2022-11-26T09:36:57.003Z,0.25
2022-11-26T09:38:00.594Z,0.50
2022-11-26T09:39:04.300Z,0.25
2022-11-26T09:40:07.891Z,1.00
2022-11-26T09:41:11.470Z,0.50
2022-11-26T09:42:15.568Z,0.75
2022-11-26T09:43:19.164Z,0.50
2022-11-26T09:44:22.452Z,0.25
2022-11-26T09:45:25.988Z,0.00
2022-11-26T09:46:40.570Z,0.50
2022-11-26T09:47:33.737Z,0.00
2022-11-26T09:48:37.145Z,0.25
2022-11-26T09:49:40.414Z,0.00
2022-11-26T09:50:43.908Z,0.50
2022-11-26T09:51:47.075Z,0.00
2022-11-26T09:52:51.203Z,0.00
2022-11-26T09:53:55.089Z,0.00
2022-11-26T09:54:58.577Z,0.00
2022-11-26T09:56:01.849Z,0.00
2022-11-26T09:57:05.242Z,0.25
2022-11-26T09:58:08.730Z,0.50
2022-11-26T09:59:12.423Z,1.00
2022-11-26T10:00:16.025Z,1.00
2022-11-26T10:01:19.881Z,0.50
2022-11-26T10:02:23.403Z,0.50
2022-11-26T10:03:26.792Z,0.50
2022-11-26T10:04:29.998Z,0.00
2022-11-26T10:05:33.368Z,0.50
2022-11-26T10:06:36.745Z,0.50
2022-11-26T10:07:40.111Z,0.00
2022-11-26T10:08:43.621Z,0.50
2022-11-26T10:09:47.123Z,0.50
2022-11-26T10:10:50.391Z,0.00
2022-11-26T10:11:53.683Z,0.50
2022-11-26T10:13:18.102Z,0.25
2022-11-26T10:14:02.703Z,0.00
2022-11-26T10:15:06.293Z,0.50
2022-11-26T10:16:09.627Z,0.50
2022-11-26T10:17:13.069Z,0.25
2022-11-26T10:18:16.561Z,0.50
2022-11-26T10:19:20.249Z,0.50
2022-11-26T10:20:24.156Z,0.00
2022-11-26T10:21:44.349Z,0.50
2022-11-26T10:22:32.560Z,0.00
2022-11-26T10:23:35.950Z,0.50
2022-11-26T10:24:40.389Z,0.00
2022-11-26T10:25:44.053Z,0.00
2022-11-26T10:26:47.460Z,0.50
2022-11-26T10:27:50.731Z,0.50
2022-11-26T10:28:54.318Z,0.00
2022-11-26T10:29:57.823Z,0.00
2022-11-26T10:31:01.187Z,0.00
2022-11-26T10:32:04.678Z,0.00
2022-11-26T10:33:07.887Z,0.25
2022-11-26T10:34:11.144Z,0.75
2022-11-26T10:35:15.047Z,0.00
2022-11-26T10:36:18.436Z,0.50
2022-11-26T10:37:22.126Z,0.75
2022-11-26T10:38:25.725Z,0.50
2022-11-26T10:39:29.208Z,0.00
2022-11-26T10:40:32.603Z,0.50
2022-11-26T10:41:35.869Z,0.25
2022-11-26T10:42:39.684Z,1.00
2022-11-26T10:43:43.304Z,1.00
2022-11-26T10:44:46.896Z,0.00
2022-11-26T10:45:50.449Z,0.00
2022-11-26T10:46:53.990Z,0.00
2022-11-26T10:47:57.732Z,0.00
2022-11-26T10:49:01.118Z,0.00
2022-11-26T10:50:19.197Z,0.50
2022-11-26T10:51:09.223Z,0.50
2022-11-26T10:52:12.611Z,0.00
2022-11-26T10:53:16.407Z,0.00
2022-11-26T10:54:19.893Z,0.50
2022-11-26T10:55:23.279Z,0.50
2022-11-26T10:56:26.772Z,1.00
2022-11-26T10:57:30.381Z,0.00
2022-11-26T10:58:33.653Z,0.50
2022-11-26T10:59:37.787Z,0.50
2022-11-26T11:00:41.708Z,0.00
2022-11-26T11:01:44.970Z,0.00
2022-11-26T11:02:48.417Z,0.50
2022-11-26T11:04:08.600Z,1.00
2022-11-26T11:04:56.424Z,0.00
2022-11-26T11:06:00.031Z,0.50
2022-11-26T11:07:06.138Z,0.50
2022-11-26T11:08:07.912Z,0.75
2022-11-26T11:09:11.300Z,0.50
2022-11-26T11:10:14.798Z,0.50
2022-11-26T11:11:18.789Z,0.00
2022-11-26T11:12:22.009Z,0.25
2022-11-26T11:13:25.459Z,0.00
2022-11-26T11:14:28.750Z,0.50
2022-11-26T11:15:32.173Z,0.50
2022-11-26T11:16:35.808Z,0.50
2022-11-26T11:17:39.208Z,0.50
2022-11-26T11:18:42.710Z,0.75
2022-11-26T11:19:45.989Z,0.50
2022-11-26T11:20:49.581Z,0.00
2022-11-26T11:21:53.281Z,0.50
2022-11-26T11:22:57.522Z,0.25
2022-11-26T11:24:08.674Z,0.50
2022-11-26T11:25:05.382Z,0.00
2022-11-26T11:26:08.567Z,0.00
2022-11-26T11:27:12.151Z,0.50
2022-11-26T11:28:15.686Z,0.25
2022-11-26T11:29:18.831Z,0.25
2022-11-26T11:30:22.310Z,0.00
2022-11-26T11:31:25.797Z,0.00
2022-11-26T11:32:28.986Z,0.25
2022-11-26T11:33:32.610Z,0.00
2022-11-26T11:34:35.854Z,1.00
2022-11-26T11:35:39.439Z,0.50
2022-11-26T11:36:42.833Z,0.50
2022-11-26T11:37:46.327Z,1.00
2022-11-26T11:38:50.037Z,1.00
2022-11-26T11:39:52.913Z,0.25
2022-11-26T11:40:56.199Z,0.25
2022-11-26T11:41:59.459Z,0.00
2022-11-26T11:43:02.749Z,0.00
2022-11-26T11:44:06.141Z,0.00
2022-11-26T11:45:09.830Z,0.50
2022-11-26T11:46:13.359Z,0.25
2022-11-26T11:47:16.595Z,0.50
2022-11-26T11:48:20.293Z,0.50
2022-11-26T11:49:23.793Z,0.00
2022-11-26T11:50:27.375Z,0.00
2022-11-26T11:51:30.976Z,0.50
2022-11-26T11:52:34.556Z,0.25
2022-11-26T11:53:37.844Z,0.00
2022-11-26T11:54:41.288Z,0.50
2022-11-26T11:55:44.714Z,0.00
2022-11-26T11:56:48.126Z,0.50
2022-11-26T11:57:51.795Z,0.50
2022-11-26T11:58:55.205Z,0.00
2022-11-26T11:59:59.090Z,0.00
2022-11-26T12:01:02.470Z,0.25
2022-11-26T12:02:05.992Z,0.00
2022-11-26T12:03:10.661Z,1.00
2022-11-26T12:04:18.063Z,1.00
2022-11-26T12:05:18.895Z,0.50
2022-11-26T12:06:22.348Z,0.00
2022-11-26T12:07:25.817Z,0.00
2022-11-26T12:08:29.031Z,0.00
2022-11-26T12:09:32.474Z,0.00
2022-11-26T12:10:35.939Z,0.50
2022-11-26T12:11:39.301Z,1.00
2022-11-26T12:12:42.691Z,0.50
2022-11-26T12:13:46.091Z,1.00
2022-11-26T12:14:49.470Z,0.20
2022-11-26T12:15:52.758Z,0.00
2022-11-26T12:16:56.257Z,0.00
2022-11-26T12:18:00.952Z,0.00
2022-11-26T12:19:04.252Z,0.50
2022-11-26T12:20:08.055Z,0.50
2022-11-26T12:21:11.940Z,0.50
2022-11-26T12:22:15.212Z,0.50
2022-11-26T12:23:22.736Z,1.00
2022-11-26T12:24:23.121Z,0.50
2022-11-26T12:25:26.568Z,0.50
2022-11-26T12:26:30.305Z,0.25
2022-11-26T12:27:34.097Z,0.50
2022-11-26T12:28:37.628Z,0.00
2022-11-26T12:29:41.284Z,0.50
2022-11-26T12:30:44.667Z,1.00
2022-11-26T12:31:48.202Z,0.50
2022-11-26T12:32:52.062Z,0.25
2022-11-26T12:33:55.744Z,0.50
2022-11-26T12:34:59.259Z,0.00
2022-11-26T12:36:02.730Z,0.00
2022-11-26T12:37:05.935Z,0.50
2022-11-26T12:38:09.708Z,1.00
2022-11-26T12:39:12.987Z,0.50
2022-11-26T12:40:16.166Z,1.00
2022-11-26T12:41:19.761Z,1.00
2022-11-26T12:42:23.154Z,1.00
2022-11-26T12:43:26.650Z,0.50
2022-11-26T12:44:30.132Z,0.50
2022-11-26T12:45:33.665Z,0.50
2022-11-26T12:46:37.008Z,0.50
2022-11-26T12:47:40.491Z,1.00
2022-11-26T12:48:43.565Z,0.50
2022-11-26T12:49:47.059Z,0.00
2022-11-26T12:50:50.750Z,0.50
2022-11-26T12:51:54.457Z,0.75
2022-11-26T12:52:57.627Z,0.25
2022-11-26T12:54:01.224Z,0.50
2022-11-26T12:55:04.909Z,0.00
2022-11-26T12:56:08.212Z,0.00
2022-11-26T12:57:11.588Z,0.00
2022-11-26T12:58:15.283Z,0.50
2022-11-26T12:59:18.871Z,0.50
2022-11-26T13:00:25.984Z,0.50
2022-11-26T13:01:26.899Z,0.75
2022-11-26T13:02:30.845Z,0.00
2022-11-26T13:03:34.570Z,0.25
2022-11-26T13:04:49.202Z,0.50
2022-11-26T13:05:43.735Z,0.50
2022-11-26T13:06:46.676Z,0.00
2022-11-26T13:07:50.296Z,0.50
2022-11-26T13:08:53.550Z,1.00
2022-11-26T13:09:56.729Z,1.00
2022-11-26T13:11:00.229Z,0.00
2022-11-26T13:12:03.395Z,0.50
2022-11-26T13:13:06.887Z,1.00
2022-11-26T13:14:10.484Z,0.75
2022-11-26T13:15:13.863Z,0.00
2022-11-26T13:16:17.080Z,0.00
2022-11-26T13:17:20.246Z,0.50
2022-11-26T13:18:23.526Z,0.00
2022-11-26T13:19:26.797Z,1.00
2022-11-26T13:20:30.084Z,1.00
2022-11-26T13:21:33.668Z,0.50
2022-11-26T13:22:36.954Z,0.00
2022-11-26T13:23:40.247Z,0.50
2022-11-26T13:24:43.629Z,0.50
2022-11-26T13:25:47.221Z,0.50
2022-11-26T13:26:50.412Z,0.50
2022-11-26T13:27:53.888Z,0.75
2022-11-26T13:28:57.282Z,0.25
2022-11-26T13:30:00.371Z,0.00
2022-11-26T13:31:03.745Z,0.50
2022-11-26T13:32:12.528Z,0.50
2022-11-26T13:33:11.851Z,1.00
2022-11-26T13:34:14.933Z,0.50
2022-11-26T13:35:18.529Z,0.25
2022-11-26T13:36:22.530Z,0.00
2022-11-26T13:37:25.918Z,0.50
2022-11-26T13:38:29.711Z,0.00
2022-11-26T13:39:33.195Z,0.50
2022-11-26T13:40:36.604Z,0.25
2022-11-26T13:41:39.681Z,1.00
2022-11-26T13:42:42.846Z,0.50
2022-11-26T13:43:46.226Z,0.50
2022-11-26T13:44:49.423Z,0.00
2022-11-26T13:45:52.502Z,0.00
2022-11-26T13:46:55.872Z,0.25
2022-11-26T13:47:59.577Z,0.00
2022-11-26T13:49:02.963Z,0.00
2022-11-26T13:50:06.242Z,0.00
2022-11-26T13:51:09.529Z,0.75
2022-11-26T13:52:12.911Z,0.50
2022-11-26T13:53:15.990Z,1.00
2022-11-26T13:54:19.172Z,0.50
2022-11-26T13:55:22.660Z,0.50
2022-11-26T13:56:25.942Z,0.50
2022-11-26T13:57:29.433Z,0.50
2022-11-26T13:58:32.720Z,0.25
2022-11-26T13:59:36.209Z,0.50
2022-11-26T14:00:39.383Z,0.50
2022-11-26T14:01:43.031Z,0.75
2022-11-26T14:02:46.411Z,1.00
2022-11-26T14:03:49.648Z,1.00
2022-11-26T14:04:53.142Z,0.50
2022-11-26T14:05:56.349Z,0.50
2022-11-26T14:06:59.706Z,1.00
2022-11-26T14:08:03.206Z,1.00
2022-11-26T14:09:06.583Z,0.25
2022-11-26T14:10:09.979Z,0.50
2022-11-26T14:11:15.150Z,0.50
2022-11-26T14:12:17.673Z,0.00
2022-11-26T14:13:20.946Z,0.00
2022-11-26T14:14:24.237Z,0.00
2022-11-26T14:15:27.519Z,0.00
2022-11-26T14:16:30.690Z,0.50
2022-11-26T14:17:35.297Z,0.00